Time;durP1;ratioP1;P1;durP2;ratioP2;P2;SDS_P1;SDS_P2;PMS_P1;PMS_P2;Temp;Humidity;BMP_temperature;BMP_pressure;BME280_temperature;BME280_humidity;BME280_pressure;Samples;Min_cycle;Max_cycle;Signal;HPM_P1;HPM_P2
2023/08/22 00:01:59;;;;;;;3.70;1.90;;;;;;;;;;5031194;28;20511;-65
2023/08/22 00:04:26;;;;;;;3.60;2.20;;;;;;;;;;5031756;28;20045;-66
2023/08/22 00:06:53;;;;;;;3.65;2.47;;;;;;;;;;5029657;28;20054;-66
2023/08/22 00:09:20;;;;;;;4.50;2.17;;;;;;;;;;5027382;28;20412;-66
2023/08/22 00:11:48;;;;;;;4.93;2.28;;;;;;;;;;5026609;28;20050;-66
2023/08/22 00:14:16;;;;;;;4.78;2.08;;;;;;;;;;5030633;28;20075;-66
2023/08/22 00:16:43;;;;;;;4.32;2.20;;;;;;;;;;5030210;28;20052;-66
2023/08/22 00:19:11;;;;;;;3.90;2.50;;;;;;;;;;5029350;28;20050;-66
2023/08/22 00:21:38;;;;;;;4.82;2.22;;;;;;;;;;5029564;28;20053;-66
2023/08/22 00:24:05;;;;;;;6.10;2.60;;;;;;;;;;5030974;28;20045;-65
2023/08/22 00:26:32;;;;;;;3.58;2.65;;;;;;;;;;5027756;28;20413;-66
2023/08/22 00:29:00;;;;;;;4.90;2.75;;;;;;;;;;5025816;28;20046;-66
2023/08/22 00:31:28;;;;;;;6.10;2.60;;;;;;;;;;5030611;28;20037;-66
2023/08/22 00:33:55;;;;;;;3.80;2.10;;;;;;;;;;5027204;28;20053;-65
2023/08/22 00:36:23;;;;;;;5.25;2.83;;;;;;;;;;5030932;28;20059;-66
2023/08/22 00:38:50;;;;;;;5.63;2.75;;;;;;;;;;5027305;28;20053;-66
2023/08/22 00:41:17;;;;;;;3.72;2.70;;;;;;;;;;5023721;28;20153;-65
2023/08/22 00:43:46;;;;;;;6.28;2.63;;;;;;;;;;5022408;28;20049;-66
2023/08/22 00:46:13;;;;;;;8.77;2.88;;;;;;;;;;5024057;28;20095;-66
2023/08/22 00:48:44;;;;;;;4.70;2.70;;;;;;;;;;5030067;28;20412;-66
2023/08/22 00:51:12;;;;;;;5.00;2.70;;;;;;;;;;5023025;28;20050;-66
2023/08/22 00:53:39;;;;;;;5.13;2.38;;;;;;;;;;5028217;28;20046;-66
2023/08/22 00:56:07;;;;;;;4.32;2.50;;;;;;;;;;5028161;28;20435;-66
2023/08/22 00:58:34;;;;;;;6.18;2.90;;;;;;;;;;5024782;28;20416;-66
2023/08/22 01:01:02;;;;;;;4.93;2.92;;;;;;;;;;5030931;28;20064;-66
2023/08/22 01:03:29;;;;;;;4.93;2.88;;;;;;;;;;5024545;28;20517;-66
2023/08/22 01:06:01;;;;;;;6.40;2.65;;;;;;;;;;5024512;28;20064;-66
2023/08/22 01:08:32;;;;;;;4.97;2.70;;;;;;;;;;5025988;28;20046;-66
2023/08/22 01:11:03;;;;;;;3.72;2.88;;;;;;;;;;5025227;28;20507;-65
2023/08/22 01:13:33;;;;;;;6.07;2.70;;;;;;;;;;5027820;28;20068;-66
2023/08/22 01:16:01;;;;;;;5.30;2.88;;;;;;;;;;5026186;28;20067;-66
2023/08/22 01:18:29;;;;;;;6.30;3.20;;;;;;;;;;5027255;28;20509;-65
2023/08/22 01:21:00;;;;;;;6.18;3.20;;;;;;;;;;5028249;28;20489;-66
2023/08/22 01:23:28;;;;;;;6.90;2.97;;;;;;;;;;5030053;28;20496;-66
2023/08/22 01:25:56;;;;;;;4.65;2.75;;;;;;;;;;5026702;28;20049;-66
2023/08/22 01:28:26;;;;;;;4.38;3.13;;;;;;;;;;5028168;28;20076;-66
2023/08/22 01:30:59;;;;;;;5.00;2.80;;;;;;;;;;5028919;28;20148;-66
2023/08/22 01:33:26;;;;;;;;;;;;;;;;;;5029891;28;20493;-66
2023/08/22 01:35:55;;;;;;;4.60;2.63;;;;;;;;;;5025403;28;19928;-66
2023/08/22 01:38:23;;;;;;;6.72;2.75;;;;;;;;;;5026541;28;20063;-66
2023/08/22 01:40:52;;;;;;;5.70;3.00;;;;;;;;;;5023545;28;20053;-66
2023/08/22 01:43:21;;;;;;;4.40;2.70;;;;;;;;;;5029616;28;20064;-66
2023/08/22 01:45:48;;;;;;;5.13;2.88;;;;;;;;;;5027658;28;20416;-66
2023/08/22 01:48:15;;;;;;;6.63;2.70;;;;;;;;;;5028037;28;20485;-65
2023/08/22 01:50:43;;;;;;;7.57;2.80;;;;;;;;;;5028482;28;20057;-66
2023/08/22 01:53:10;;;;;;;7.40;2.95;;;;;;;;;;5027690;28;20057;-66
2023/08/22 01:55:37;;;;;;;4.50;2.78;;;;;;;;;;5029769;28;20068;-66
2023/08/22 01:58:10;;;;;;;5.07;2.97;;;;;;;;;;5027756;28;20729;-65
2023/08/22 02:00:37;;;;;;;;;;;;;;;;;;5026699;28;20064;-66
2023/08/22 02:03:05;;;;;;;4.28;2.55;;;;;;;;;;5023551;28;19927;-66
2023/08/22 02:05:32;;;;;;;8.02;2.92;;;;;;;;;;5020000;28;20053;-66
2023/08/22 02:07:59;;;;;;;5.18;2.80;;;;;;;;;;5028441;28;20072;-66
2023/08/22 02:10:27;;;;;;;4.18;2.63;;;;;;;;;;5027448;28;20061;-66
2023/08/22 02:12:54;;;;;;;4.13;2.40;;;;;;;;;;5020333;28;20037;-66
2023/08/22 02:15:23;;;;;;;7.13;3.00;;;;;;;;;;5026187;28;20071;-65
2023/08/22 02:17:51;;;;;;;3.97;2.53;;;;;;;;;;5023507;28;20057;-66
2023/08/22 02:20:19;;;;;;;6.75;2.70;;;;;;;;;;5023679;28;20484;-66
2023/08/22 02:22:46;;;;;;;3.42;2.45;;;;;;;;;;5022440;28;20088;-66
2023/08/22 02:25:13;;;;;;;4.03;2.40;;;;;;;;;;5022556;28;20050;-66
2023/08/22 02:27:40;;;;;;;4.35;2.88;;;;;;;;;;5029792;28;20055;-66
2023/08/22 02:30:08;;;;;;;4.40;2.67;;;;;;;;;;5026695;28;20046;-66
2023/08/22 02:32:37;;;;;;;6.38;3.00;;;;;;;;;;5033474;28;20056;-66
2023/08/22 02:35:06;;;;;;;6.35;3.17;;;;;;;;;;5025761;28;20493;-66
2023/08/22 02:37:33;;;;;;;3.45;2.10;;;;;;;;;;5032570;28;20061;-65
2023/08/22 02:40:00;;;;;;;5.55;2.17;;;;;;;;;;5031454;28;20511;-66
2023/08/22 02:42:27;;;;;;;4.45;2.35;;;;;;;;;;5028914;28;20049;-66
2023/08/22 02:44:55;;;;;;;6.30;2.78;;;;;;;;;;5032245;28;20451;-66
2023/08/22 02:47:22;;;;;;;6.13;2.50;;;;;;;;;;5032421;28;20061;-65
2023/08/22 02:49:50;;;;;;;4.68;2.35;;;;;;;;;;5027743;28;20484;-66
2023/08/22 02:52:18;;;;;;;3.95;2.58;;;;;;;;;;5029272;28;20048;-65
2023/08/22 02:54:45;;;;;;;5.70;2.45;;;;;;;;;;5031097;28;20064;-65
2023/08/22 02:57:12;;;;;;;4.57;2.20;;;;;;;;;;5033087;28;20460;-65
2023/08/22 02:59:39;;;;;;;5.28;2.65;;;;;;;;;;5032788;28;20052;-66
2023/08/22 03:02:07;;;;;;;5.20;2.97;;;;;;;;;;5029058;28;20050;-65
2023/08/22 03:04:36;;;;;;;7.38;3.03;;;;;;;;;;5031967;28;20053;-66
2023/08/22 03:07:05;;;;;;;5.65;3.38;;;;;;;;;;5031440;28;20045;-66
2023/08/22 03:09:33;;;;;;;8.00;3.45;;;;;;;;;;5031345;28;20066;-66
2023/08/22 03:12:00;;;;;;;7.10;3.60;;;;;;;;;;5032504;28;20477;-65
2023/08/22 03:14:27;;;;;;;6.25;3.35;;;;;;;;;;5030435;28;20053;-65
2023/08/22 03:16:54;;;;;;;7.72;3.70;;;;;;;;;;5027300;28;20053;-66
2023/08/22 03:19:22;;;;;;;5.57;3.20;;;;;;;;;;5028802;28;20037;-65
2023/08/22 03:21:49;;;;;;;4.90;3.10;;;;;;;;;;5032124;28;20056;-65
2023/08/22 03:24:17;;;;;;;6.22;3.47;;;;;;;;;;5030744;28;20068;-66
2023/08/22 03:26:45;;;;;;;5.07;3.15;;;;;;;;;;5032021;28;20050;-65
2023/08/22 03:29:12;;;;;;;6.72;3.50;;;;;;;;;;5028284;28;20481;-66
2023/08/22 03:31:39;;;;;;;7.45;3.83;;;;;;;;;;5031640;28;20060;-66
2023/08/22 03:34:06;;;;;;;7.45;3.50;;;;;;;;;;5032362;28;20049;-66
2023/08/22 03:36:34;;;;;;;10.85;3.30;;;;;;;;;;5030542;28;20506;-66
2023/08/22 03:39:01;;;;;;;6.93;3.40;;;;;;;;;;5031866;28;20056;-66
2023/08/22 03:41:29;;;;;;;7.68;3.38;;;;;;;;;;5030765;28;20057;-65
2023/08/22 03:43:57;;;;;;;7.90;3.88;;;;;;;;;;5030557;28;20068;-66
2023/08/22 03:46:24;;;;;;;9.68;3.50;;;;;;;;;;5028954;28;20049;-66
2023/08/22 03:48:51;;;;;;;5.95;3.80;;;;;;;;;;5030993;28;20045;-66
2023/08/22 03:51:18;;;;;;;6.40;3.83;;;;;;;;;;5022925;28;20053;-65
2023/08/22 03:53:45;;;;;;;7.65;3.55;;;;;;;;;;5029788;28;20053;-66
2023/08/22 03:56:13;;;;;;;6.72;3.78;;;;;;;;;;5026615;28;20064;-65
2023/08/22 03:58:41;;;;;;;7.13;3.55;;;;;;;;;;5025493;28;20519;-66
2023/08/22 04:01:08;;;;;;;8.07;4.05;;;;;;;;;;5031418;28;20045;-66
2023/08/22 04:03:36;;;;;;;8.50;4.03;;;;;;;;;;5031153;28;20071;-66
2023/08/22 04:06:04;;;;;;;6.05;4.18;;;;;;;;;;5031491;28;20206;-66
2023/08/22 04:08:31;;;;;;;6.55;4.50;;;;;;;;;;5030824;28;20049;-65
2023/08/22 04:10:58;;;;;;;7.47;4.05;;;;;;;;;;5029148;28;20049;-65
2023/08/22 04:13:25;;;;;;;6.35;3.53;;;;;;;;;;5030380;28;20485;-65
2023/08/22 04:15:54;;;;;;;11.00;4.20;;;;;;;;;;5030144;28;20061;-66
2023/08/22 04:18:21;;;;;;;6.05;3.80;;;;;;;;;;5031184;28;20068;-66
2023/08/22 04:20:48;;;;;;;7.55;3.53;;;;;;;;;;5030323;28;20045;-66
2023/08/22 04:23:15;;;;;;;7.03;3.90;;;;;;;;;;5031512;28;20239;-66
2023/08/22 04:25:43;;;;;;;6.22;4.00;;;;;;;;;;5029224;28;20053;-65
2023/08/22 04:28:10;;;;;;;6.53;4.22;;;;;;;;;;5030843;28;20049;-65
2023/08/22 04:30:37;;;;;;;5.90;3.60;;;;;;;;;;5028569;28;20064;-66
2023/08/22 04:33:06;;;;;;;6.00;3.60;;;;;;;;;;5031377;28;20051;-65
2023/08/22 04:35:33;;;;;;;8.30;4.22;;;;;;;;;;5030294;28;20403;-66
2023/08/22 04:38:00;;;;;;;6.47;4.85;;;;;;;;;;5026789;28;20407;-66
2023/08/22 04:40:28;;;;;;;7.50;4.40;;;;;;;;;;5027116;28;20041;-65
2023/08/22 04:42:55;;;;;;;5.05;3.60;;;;;;;;;;5031253;28;20493;-65
2023/08/22 04:45:23;;;;;;;6.85;4.40;;;;;;;;;;5031446;28;20045;-66
2023/08/22 04:47:50;;;;;;;6.10;3.83;;;;;;;;;;5029708;28;20132;-65
2023/08/22 04:50:19;;;;;;;5.50;3.80;;;;;;;;;;5029388;28;20041;-66
2023/08/22 04:52:46;;;;;;;5.57;3.40;;;;;;;;;;5031177;28;20052;-65
2023/08/22 04:55:14;;;;;;;6.85;3.97;;;;;;;;;;5022890;28;20056;-66
2023/08/22 04:57:41;;;;;;;8.15;3.45;;;;;;;;;;5031107;28;20085;-66
2023/08/22 05:00:10;;;;;;;4.88;3.55;;;;;;;;;;5029220;28;20439;-66
2023/08/22 05:02:37;;;;;;;6.30;3.80;;;;;;;;;;5024333;28;20118;-65
2023/08/22 05:05:06;;;;;;;8.85;3.75;;;;;;;;;;5026283;28;20042;-66
2023/08/22 05:07:34;;;;;;;6.28;3.75;;;;;;;;;;5025901;28;20574;-65
2023/08/22 05:10:02;;;;;;;8.40;4.20;;;;;;;;;;5025485;28;20506;-66
2023/08/22 05:12:29;;;;;;;7.53;3.83;;;;;;;;;;5019094;28;20066;-66
2023/08/22 05:14:57;;;;;;;4.82;3.63;;;;;;;;;;5027948;28;20045;-65
2023/08/22 05:17:24;;;;;;;7.10;4.07;;;;;;;;;;5023490;28;20054;-66
2023/08/22 05:19:52;;;;;;;6.15;3.88;;;;;;;;;;5022878;28;20049;-67
2023/08/22 05:22:19;;;;;;;6.85;3.90;;;;;;;;;;5025976;28;20037;-65
2023/08/22 05:24:47;;;;;;;8.52;4.47;;;;;;;;;;5028583;28;20053;-65
2023/08/22 05:27:16;;;;;;;8.30;4.72;;;;;;;;;;5027947;28;20061;-66
2023/08/22 05:29:44;;;;;;;7.00;4.07;;;;;;;;;;5022862;28;20046;-65
2023/08/22 05:32:11;;;;;;;8.02;4.43;;;;;;;;;;5028263;28;20488;-66
2023/08/22 05:34:38;;;;;;;8.85;4.25;;;;;;;;;;5028751;28;20061;-66
2023/08/22 05:37:05;;;;;;;7.90;4.47;;;;;;;;;;5027872;28;20045;-66
2023/08/22 05:39:33;;;;;;;11.15;4.55;;;;;;;;;;5027491;28;20052;-66
2023/08/22 05:42:01;;;;;;;6.47;4.05;;;;;;;;;;5028283;28;20056;-65
2023/08/22 05:44:29;;;;;;;6.53;3.83;;;;;;;;;;5026457;28;20064;-66
2023/08/22 05:46:56;;;;;;;12.38;4.28;;;;;;;;;;5025493;28;20081;-65
2023/08/22 05:49:23;;;;;;;6.95;4.03;;;;;;;;;;5029015;28;20048;-66
2023/08/22 05:51:50;;;;;;;9.68;3.60;;;;;;;;;;5023359;28;20508;-65
2023/08/22 05:54:18;;;;;;;7.15;4.22;;;;;;;;;;5025858;28;20068;-66
2023/08/22 05:56:45;;;;;;;6.50;3.50;;;;;;;;;;5025930;28;20067;-65
2023/08/22 05:59:14;;;;;;;8.77;3.70;;;;;;;;;;5026985;28;20041;-65
2023/08/22 06:01:41;;;;;;;6.72;3.55;;;;;;;;;;5026187;28;20060;-66
2023/08/22 06:04:08;;;;;;;7.28;3.63;;;;;;;;;;5029100;28;20060;-65
2023/08/22 06:06:35;;;;;;;8.07;3.90;;;;;;;;;;5026682;28;20045;-65
2023/08/22 06:09:03;;;;;;;7.38;4.05;;;;;;;;;;5031486;28;20045;-65
2023/08/22 06:11:30;;;;;;;6.00;3.25;;;;;;;;;;5030904;28;20107;-65
2023/08/22 06:13:57;;;;;;;9.68;3.80;;;;;;;;;;5032208;28;20053;-65
2023/08/22 06:16:26;;;;;;;7.07;3.88;;;;;;;;;;5029135;28;20132;-65
2023/08/22 06:18:53;;;;;;;7.18;3.60;;;;;;;;;;5029084;28;20049;-65
2023/08/22 06:21:20;;;;;;;8.73;4.10;;;;;;;;;;5030884;28;20084;-65
2023/08/22 06:23:47;;;;;;;8.70;4.00;;;;;;;;;;5032812;28;20049;-65
2023/08/22 06:26:15;;;;;;;10.35;4.60;;;;;;;;;;5032746;28;20041;-65
2023/08/22 06:28:43;;;;;;;9.23;3.95;;;;;;;;;;5032895;28;20049;-65
2023/08/22 06:31:10;;;;;;;8.13;4.05;;;;;;;;;;5033514;28;20485;-65
2023/08/22 06:33:38;;;;;;;6.57;4.22;;;;;;;;;;5031836;28;20064;-65
2023/08/22 06:36:06;;;;;;;6.15;3.83;;;;;;;;;;5033794;28;20057;-65
2023/08/22 06:38:33;;;;;;;6.43;3.67;;;;;;;;;;5032517;28;20508;-65
2023/08/22 06:41:04;;;;;;;5.90;3.72;;;;;;;;;;5030469;28;20477;-65
2023/08/22 06:43:31;;;;;;;8.38;3.75;;;;;;;;;;5033673;28;20053;-65
2023/08/22 06:45:58;;;;;;;5.72;3.58;;;;;;;;;;5033296;28;20499;-65
2023/08/22 06:48:27;;;;;;;7.47;3.58;;;;;;;;;;5029175;28;20052;-64
2023/08/22 06:50:55;;;;;;;5.38;3.75;;;;;;;;;;5031357;28;20099;-65
2023/08/22 06:53:23;;;;;;;8.48;4.70;;;;;;;;;;5026295;28;20072;-65
2023/08/22 06:55:50;;;;;;;6.07;3.85;;;;;;;;;;5032932;28;20053;-64
2023/08/22 06:58:17;;;;;;;9.13;4.18;;;;;;;;;;5032563;28;20050;-65
2023/08/22 07:00:45;;;;;;;7.00;4.10;;;;;;;;;;5032949;28;20496;-65
2023/08/22 07:03:12;;;;;;;9.60;4.22;;;;;;;;;;5030770;28;20413;-65
2023/08/22 07:05:39;;;;;;;7.18;3.92;;;;;;;;;;5033332;28;20052;-65
2023/08/22 07:08:08;;;;;;;11.18;4.22;;;;;;;;;;5031302;28;20049;-65
2023/08/22 07:10:35;;;;;;;8.20;4.38;;;;;;;;;;5030168;28;20050;-64
2023/08/22 07:13:03;;;;;;;9.48;4.50;;;;;;;;;;5028277;28;20041;-65
2023/08/22 07:15:30;;;;;;;6.75;3.95;;;;;;;;;;5028703;28;20045;-65
2023/08/22 07:17:57;;;;;;;8.30;4.03;;;;;;;;;;5029656;28;20148;-65
2023/08/22 07:20:25;;;;;;;8.27;4.28;;;;;;;;;;5023176;28;20051;-64
2023/08/22 07:22:52;;;;;;;8.93;3.88;;;;;;;;;;5027122;28;20056;-65
2023/08/22 07:25:21;;;;;;;9.13;4.18;;;;;;;;;;5031032;28;20045;-65
2023/08/22 07:27:48;;;;;;;7.93;4.55;;;;;;;;;;5030596;28;20041;-65
2023/08/22 07:30:15;;;;;;;7.00;3.67;;;;;;;;;;5029688;28;20457;-65
2023/08/22 07:32:42;;;;;;;6.53;3.55;;;;;;;;;;5031585;28;20463;-65
2023/08/22 07:35:10;;;;;;;7.85;4.10;;;;;;;;;;5029564;28;20045;-65
2023/08/22 07:37:37;;;;;;;10.95;4.00;;;;;;;;;;5028276;28;20515;-65
2023/08/22 07:40:05;;;;;;;6.25;3.70;;;;;;;;;;5026385;28;20041;-65
2023/08/22 07:42:35;;;;;;;8.18;3.85;;;;;;;;;;5029269;28;20077;-66
2023/08/22 07:45:03;;;;;;;7.38;4.22;;;;;;;;;;5029973;28;20052;-66
2023/08/22 07:47:31;;;;;;;7.10;4.22;;;;;;;;;;5027812;28;20084;-66
2023/08/22 07:49:58;;;;;;;8.70;4.40;;;;;;;;;;5030269;28;20049;-65
2023/08/22 07:52:25;;;;;;;10.63;4.20;;;;;;;;;;5028456;28;20052;-65
2023/08/22 07:54:52;;;;;;;6.45;3.85;;;;;;;;;;5029605;28;20053;-65
2023/08/22 07:57:20;;;;;;;9.20;3.80;;;;;;;;;;5031803;28;20521;-65
2023/08/22 07:59:48;;;;;;;8.43;4.20;;;;;;;;;;5031082;28;20060;-65
2023/08/22 08:02:16;;;;;;;7.45;4.10;;;;;;;;;;5032109;28;20056;-65
2023/08/22 08:04:43;;;;;;;8.80;4.43;;;;;;;;;;5028993;28;20481;-65
2023/08/22 08:07:10;;;;;;;10.05;4.55;;;;;;;;;;5031086;28;20124;-65
2023/08/22 08:09:37;;;;;;;9.82;5.13;;;;;;;;;;5027947;28;20057;-65
2023/08/22 08:12:05;;;;;;;6.18;4.20;;;;;;;;;;5027871;28;20049;-66
2023/08/22 08:14:32;;;;;;;8.45;4.13;;;;;;;;;;5030081;28;20096;-65
2023/08/22 08:17:01;;;;;;;7.50;4.38;;;;;;;;;;5028440;28;20041;-65
2023/08/22 08:19:28;;;;;;;8.15;4.53;;;;;;;;;;5029641;28;20084;-65
2023/08/22 08:21:56;;;;;;;8.30;4.43;;;;;;;;;;5031681;28;20045;-65
2023/08/22 08:24:23;;;;;;;7.03;3.70;;;;;;;;;;5029581;28;20489;-65
2023/08/22 08:26:51;;;;;;;8.20;4.05;;;;;;;;;;5028037;28;20054;-65
2023/08/22 08:29:18;;;;;;;9.65;4.85;;;;;;;;;;5029069;28;20124;-65
2023/08/22 08:31:47;;;;;;;12.18;4.32;;;;;;;;;;5030178;28;20050;-66
2023/08/22 08:34:15;;;;;;;7.60;4.22;;;;;;;;;;5029826;28;20049;-66
2023/08/22 08:36:43;;;;;;;7.22;4.05;;;;;;;;;;5030710;28;20461;-65
2023/08/22 08:39:10;;;;;;;7.47;3.70;;;;;;;;;;5027418;28;20128;-65
2023/08/22 08:41:39;;;;;;;8.88;4.00;;;;;;;;;;5025717;28;20045;-65
2023/08/22 08:44:07;;;;;;;9.93;4.00;;;;;;;;;;5030613;28;20060;-66
2023/08/22 08:46:35;;;;;;;8.18;3.78;;;;;;;;;;5025156;28;20056;-65
2023/08/22 08:49:02;;;;;;;10.23;4.10;;;;;;;;;;5026832;28;20046;-66
2023/08/22 08:51:32;;;;;;;5.55;3.78;;;;;;;;;;5030584;28;20504;-66
2023/08/22 08:53:59;;;;;;;7.88;4.03;;;;;;;;;;5027276;28;20057;-66
2023/08/22 08:56:26;;;;;;;8.02;3.72;;;;;;;;;;5029198;28;20052;-65
2023/08/22 08:58:54;;;;;;;9.60;3.95;;;;;;;;;;5030758;28;20501;-67
2023/08/22 09:01:22;;;;;;;8.10;4.45;;;;;;;;;;5030772;28;20119;-66
2023/08/22 09:03:49;;;;;;;8.52;4.32;;;;;;;;;;5030230;28;20059;-66
2023/08/22 09:06:17;;;;;;;6.80;4.55;;;;;;;;;;5029720;28;20046;-65
2023/08/22 09:09:03;;;;;;;9.85;4.10;;;;;;;;;;5027497;28;20057;-65
2023/08/22 09:11:30;;;;;;;9.52;3.85;;;;;;;;;;5027774;28;20132;-65
2023/08/22 09:13:57;;;;;;;7.60;4.38;;;;;;;;;;5029683;28;20054;-66
2023/08/22 09:16:25;;;;;;;10.43;4.10;;;;;;;;;;5029282;28;20053;-66
2023/08/22 09:18:52;;;;;;;8.30;4.28;;;;;;;;;;5029115;28;20052;-66
2023/08/22 09:21:19;;;;;;;9.27;3.90;;;;;;;;;;5027651;28;20527;-65
2023/08/22 09:23:49;;;;;;;10.00;4.10;;;;;;;;;;5029232;28;20054;-66
2023/08/22 09:26:21;;;;;;;4.85;3.53;;;;;;;;;;5026632;28;20499;-65
2023/08/22 09:28:48;;;;;;;10.20;4.15;;;;;;;;;;5027768;28;20060;-68
2023/08/22 09:31:22;;;;;;;6.68;3.75;;;;;;;;;;5028193;28;20037;-66
2023/08/22 09:33:50;;;;;;;6.53;3.60;;;;;;;;;;5029450;28;20046;-66
2023/08/22 09:36:20;;;;;;;8.65;3.95;;;;;;;;;;5025535;28;20056;-66
2023/08/22 09:38:55;;;;;;;8.38;3.97;;;;;;;;;;5021570;28;20049;-66
2023/08/22 09:41:23;;;;;;;7.82;4.00;;;;;;;;;;5025778;28;20160;-66
2023/08/22 09:43:53;;;;;;;7.13;3.50;;;;;;;;;;5026562;28;20056;-67
2023/08/22 09:46:21;;;;;;;7.32;3.67;;;;;;;;;;5027514;28;20054;-67
2023/08/22 09:48:49;;;;;;;8.57;3.55;;;;;;;;;;5026891;28;20054;-66
2023/08/22 09:51:19;;;;;;;6.20;3.47;;;;;;;;;;5020631;28;20045;-66
2023/08/22 09:53:47;;;;;;;7.72;3.80;;;;;;;;;;5027138;28;20049;-66
2023/08/22 09:56:16;;;;;;;9.10;3.58;;;;;;;;;;5028387;28;20046;-67
2023/08/22 09:58:43;;;;;;;7.60;3.53;;;;;;;;;;5029445;28;20053;-66
2023/08/22 10:01:10;;;;;;;7.68;2.97;;;;;;;;;;5028670;28;20103;-66
2023/08/22 10:03:38;;;;;;;8.65;3.65;;;;;;;;;;5024350;28;20420;-66
2023/08/22 10:06:05;;;;;;;7.18;3.75;;;;;;;;;;5027614;28;20057;-66
2023/08/22 10:08:32;;;;;;;5.70;3.80;;;;;;;;;;5024758;28;20045;-67
2023/08/22 10:11:00;;;;;;;5.65;3.22;;;;;;;;;;5022901;28;20042;-66
2023/08/22 10:13:29;;;;;;;6.43;3.45;;;;;;;;;;5029293;28;20399;-66
2023/08/22 10:15:58;;;;;;;5.13;2.97;;;;;;;;;;5028800;28;20045;-68
2023/08/22 10:18:26;;;;;;;5.82;2.60;;;;;;;;;;5027826;28;20096;-66
2023/08/22 10:20:55;;;;;;;5.53;2.30;;;;;;;;;;5027054;28;20056;-66
2023/08/22 10:23:37;;;;;;;6.03;2.53;;;;;;;;;;5028169;28;20049;-66
2023/08/22 10:26:04;;;;;;;5.55;2.20;;;;;;;;;;5028349;28;20061;-66
2023/08/22 10:28:42;;;;;;;7.40;2.40;;;;;;;;;;5029424;28;20064;-66
2023/08/22 10:31:11;;;;;;;10.13;2.92;;;;;;;;;;5027491;28;20044;-66
2023/08/22 10:33:39;;;;;;;8.13;2.53;;;;;;;;;;5022252;28;20115;-66
2023/08/22 10:36:07;;;;;;;6.55;2.90;;;;;;;;;;5029499;28;20096;-66
2023/08/22 10:38:52;;;;;;;6.03;2.20;;;;;;;;;;5027931;28;20058;-66
2023/08/22 10:41:22;;;;;;;5.45;2.58;;;;;;;;;;5027094;28;20051;-66
2023/08/22 10:43:50;;;;;;;7.32;2.35;;;;;;;;;;5029729;28;20049;-67
2023/08/22 10:46:18;;;;;;;6.63;2.55;;;;;;;;;;5026543;28;20045;-65
2023/08/22 10:48:47;;;;;;;5.00;2.15;;;;;;;;;;5031839;28;20044;-65
2023/08/22 10:51:14;;;;;;;7.57;2.65;;;;;;;;;;5028885;28;20069;-66
2023/08/22 10:53:43;;;;;;;4.55;2.25;;;;;;;;;;5031964;28;20056;-66
2023/08/22 10:56:18;;;;;;;9.10;2.85;;;;;;;;;;5032480;28;20455;-66
2023/08/22 10:58:45;;;;;;;7.32;2.47;;;;;;;;;;5029939;28;20497;-66
2023/08/22 11:01:17;;;;;;;6.30;2.75;;;;;;;;;;5030911;28;20046;-65
2023/08/22 11:03:44;;;;;;;6.10;2.40;;;;;;;;;;5026288;28;20503;-66
2023/08/22 11:06:16;;;;;;;4.65;2.50;;;;;;;;;;5031357;28;20544;-66
2023/08/22 11:08:44;;;;;;;6.05;2.95;;;;;;;;;;5029133;28;20045;-67
2023/08/22 11:11:13;;;;;;;6.57;2.78;;;;;;;;;;5030279;28;20468;-66
2023/08/22 11:13:40;;;;;;;9.82;2.92;;;;;;;;;;5031187;28;20050;-66
2023/08/22 11:16:12;;;;;;;6.72;3.65;;;;;;;;;;5028054;28;20053;-67
2023/08/22 11:18:41;;;;;;;7.43;3.38;;;;;;;;;;5032232;28;20516;-66
2023/08/22 11:21:08;;;;;;;7.22;3.50;;;;;;;;;;5030127;28;20045;-66
2023/08/22 11:23:36;;;;;;;4.03;2.80;;;;;;;;;;5032193;28;20100;-67
2023/08/22 11:26:04;;;;;;;6.25;3.03;;;;;;;;;;5029845;28;20081;-66
2023/08/22 11:28:32;;;;;;;5.43;2.75;;;;;;;;;;5030179;28;20068;-67
2023/08/22 11:30:59;;;;;;;8.00;3.25;;;;;;;;;;5030115;28;20057;-66
2023/08/22 11:33:27;;;;;;;8.50;3.38;;;;;;;;;;5031164;28;20116;-67
2023/08/22 11:35:55;;;;;;;5.07;3.15;;;;;;;;;;5032361;28;20050;-67
2023/08/22 11:38:23;;;;;;;5.25;2.92;;;;;;;;;;5031082;28;20052;-67
2023/08/22 11:40:50;;;;;;;5.47;2.65;;;;;;;;;;5027112;28;20564;-67
2023/08/22 11:43:18;;;;;;;5.85;3.10;;;;;;;;;;5023810;28;20046;-67
2023/08/22 11:45:48;;;;;;;6.88;2.70;;;;;;;;;;5030846;28;20064;-67
2023/08/22 11:48:16;;;;;;;4.75;2.60;;;;;;;;;;5030642;28;20050;-67
2023/08/22 11:50:44;;;;;;;7.45;3.17;;;;;;;;;;5025595;28;20061;-67
2023/08/22 11:53:13;;;;;;;4.15;2.30;;;;;;;;;;5029292;28;20071;-67
2023/08/22 11:55:41;;;;;;;4.32;2.03;;;;;;;;;;5029647;28;20049;-68
2023/08/22 11:58:11;;;;;;;7.30;3.00;;;;;;;;;;5029694;28;20053;-67
2023/08/22 12:00:39;;;;;;;4.45;2.08;;;;;;;;;;5030320;28;20500;-68
2023/08/22 12:03:06;;;;;;;5.20;2.30;;;;;;;;;;5030300;28;20511;-67
2023/08/22 12:05:34;;;;;;;4.90;1.98;;;;;;;;;;5030423;28;20052;-67
2023/08/22 12:08:02;;;;;;;3.72;2.30;;;;;;;;;;5028033;28;20404;-68
2023/08/22 12:10:41;;;;;;;4.40;2.28;;;;;;;;;;5030970;28;20041;-67
2023/08/22 12:13:08;;;;;;;4.03;2.00;;;;;;;;;;5030085;28;20044;-66
2023/08/22 12:15:36;;;;;;;6.40;1.77;;;;;;;;;;5031324;28;20493;-67
2023/08/22 12:18:04;;;;;;;7.57;2.20;;;;;;;;;;5030268;28;20049;-67
2023/08/22 12:20:31;;;;;;;5.47;2.10;;;;;;;;;;5024535;28;20559;-67
2023/08/22 12:22:58;;;;;;;6.63;1.95;;;;;;;;;;5030891;28;20056;-66
2023/08/22 12:25:26;;;;;;;6.18;2.28;;;;;;;;;;5029032;28;20122;-67
2023/08/22 12:27:54;;;;;;;5.38;2.20;;;;;;;;;;5030173;28;20053;-67
2023/08/22 12:30:22;;;;;;;5.88;2.53;;;;;;;;;;5030235;28;20103;-67
2023/08/22 12:32:49;;;;;;;6.43;2.60;;;;;;;;;;5028376;28;20053;-68
2023/08/22 12:35:16;;;;;;;4.40;2.05;;;;;;;;;;5030563;28;20052;-67
2023/08/22 12:37:43;;;;;;;5.85;2.20;;;;;;;;;;5028244;28;20413;-67
2023/08/22 12:40:11;;;;;;;3.83;2.03;;;;;;;;;;5028620;28;20045;-67
2023/08/22 12:42:39;;;;;;;4.53;2.08;;;;;;;;;;5029396;28;20058;-67
2023/08/22 12:45:09;;;;;;;4.55;2.40;;;;;;;;;;5030146;28;20052;-67
2023/08/22 12:47:37;;;;;;;6.10;2.67;;;;;;;;;;5029107;28;20476;-67
2023/08/22 12:50:05;;;;;;;5.03;2.55;;;;;;;;;;5028142;28;20045;-67
2023/08/22 12:52:32;;;;;;;5.50;2.38;;;;;;;;;;5029430;28;20041;-67
2023/08/22 12:54:59;;;;;;;9.20;3.15;;;;;;;;;;5027889;28;20061;-67
2023/08/22 12:57:26;;;;;;;6.38;3.00;;;;;;;;;;5029605;28;20053;-67
2023/08/22 12:59:54;;;;;;;5.15;2.75;;;;;;;;;;5027442;28;20084;-67
2023/08/22 13:02:23;;;;;;;6.85;3.30;;;;;;;;;;5030267;28;20128;-67
2023/08/22 13:04:50;;;;;;;6.78;3.10;;;;;;;;;;5027536;28;20046;-68
2023/08/22 13:07:18;;;;;;;5.90;3.60;;;;;;;;;;5021212;28;20049;-68
2023/08/22 13:09:46;;;;;;;8.85;4.00;;;;;;;;;;5026256;28;20129;-67
2023/08/22 13:12:13;;;;;;;6.70;3.85;;;;;;;;;;5027673;28;20060;-67
2023/08/22 13:14:40;;;;;;;4.78;3.70;;;;;;;;;;5029228;28;20049;-67
2023/08/22 13:17:07;;;;;;;7.38;3.53;;;;;;;;;;5028931;28;20037;-67
2023/08/22 13:19:36;;;;;;;5.13;3.55;;;;;;;;;;5029407;28;20394;-67
2023/08/22 13:22:04;;;;;;;6.75;3.05;;;;;;;;;;5026297;28;20046;-67
2023/08/22 13:24:31;;;;;;;6.43;3.08;;;;;;;;;;5029178;28;20053;-67
2023/08/22 13:26:59;;;;;;;6.00;3.90;;;;;;;;;;5029038;28;20049;-66
2023/08/22 13:29:26;;;;;;;8.10;3.67;;;;;;;;;;5029271;28;20059;-67
2023/08/22 13:31:53;;;;;;;5.60;3.85;;;;;;;;;;5029076;28;20064;-68
2023/08/22 13:34:20;;;;;;;5.72;3.78;;;;;;;;;;5030033;28;20045;-66
2023/08/22 13:36:49;;;;;;;7.32;4.18;;;;;;;;;;5024984;28;20232;-67
2023/08/22 13:39:16;;;;;;;9.63;4.03;;;;;;;;;;5025773;28;20049;-67
2023/08/22 13:41:43;;;;;;;6.03;3.50;;;;;;;;;;5023834;28;20080;-67
2023/08/22 13:44:11;;;;;;;6.63;3.47;;;;;;;;;;5026516;28;20056;-67
2023/08/22 13:46:38;;;;;;;8.73;3.90;;;;;;;;;;5027280;28;20136;-67
2023/08/22 13:49:07;;;;;;;8.52;3.35;;;;;;;;;;5029090;28;20045;-67
2023/08/22 13:51:34;;;;;;;5.35;2.92;;;;;;;;;;5021551;28;20353;-67
2023/08/22 13:54:03;;;;;;;5.30;2.80;;;;;;;;;;5027889;28;20041;-68
2023/08/22 13:56:31;;;;;;;9.02;3.33;;;;;;;;;;5026501;28;20061;-67
2023/08/22 13:58:58;;;;;;;8.27;3.67;;;;;;;;;;5030144;28;20132;-67
2023/08/22 14:01:26;;;;;;;6.85;3.28;;;;;;;;;;5026107;28;20045;-68
2023/08/22 14:03:53;;;;;;;5.65;3.05;;;;;;;;;;5021584;28;20107;-68
2023/08/22 14:06:21;;;;;;;8.38;3.13;;;;;;;;;;5029159;28;20054;-69
2023/08/22 14:08:48;;;;;;;6.20;3.28;;;;;;;;;;5027071;28;20053;-67
2023/08/22 14:11:17;;;;;;;5.90;2.72;;;;;;;;;;5027188;28;20056;-67
2023/08/22 14:13:44;;;;;;;4.45;2.88;;;;;;;;;;5029154;28;20083;-68
2023/08/22 14:16:11;;;;;;;8.35;3.22;;;;;;;;;;5027971;28;20524;-69
2023/08/22 14:18:39;;;;;;;4.13;3.00;;;;;;;;;;5029417;28;20056;-67
2023/08/22 14:21:06;;;;;;;6.40;2.88;;;;;;;;;;5026856;28;20046;-67
2023/08/22 14:23:33;;;;;;;6.05;2.90;;;;;;;;;;5033374;28;20069;-67
2023/08/22 14:26:00;;;;;;;5.35;2.78;;;;;;;;;;5030230;28;20305;-67
2023/08/22 14:28:29;;;;;;;5.63;2.40;;;;;;;;;;5031952;28;20505;-68
2023/08/22 14:31:00;;;;;;;4.65;2.80;;;;;;;;;;5031263;28;20053;-67
2023/08/22 14:33:27;;;;;;;4.57;2.90;;;;;;;;;;5031223;28;20046;-68
2023/08/22 14:35:54;;;;;;;5.38;2.70;;;;;;;;;;5031888;28;20049;-70
2023/08/22 14:38:22;;;;;;;4.35;2.28;;;;;;;;;;5033076;28;20561;-67
2023/08/22 14:40:56;;;;;;;5.43;3.10;;;;;;;;;;5033992;28;20123;-67
2023/08/22 14:43:23;;;;;;;7.28;3.00;;;;;;;;;;5031291;28;20041;-66
2023/08/22 14:45:51;;;;;;;3.30;2.30;;;;;;;;;;5031544;28;20053;-67
2023/08/22 14:48:19;;;;;;;6.22;2.53;;;;;;;;;;5032047;28;20053;-67